sensor_id;sensor_type;location;lat;lon;timestamp;P1;durP1;ratioP1;P2;durP2;ratioP2
80398;SDS011;69722;48.642;9.142;2023-06-22T00:00:07;8.30;;;6.17;;
80398;SDS011;69722;48.642;9.142;2023-06-22T00:02:36;8.82;;;5.97;;
80398;SDS011;69722;48.642;9.142;2023-06-22T00:05:02;7.93;;;5.93;;
80398;SDS011;69722;48.642;9.142;2023-06-22T00:07:27;7.43;;;5.83;;
80398;SDS011;69722;48.642;9.142;2023-06-22T00:09:52;9.07;;;6.10;;
80398;SDS011;69722;48.642;9.142;2023-06-22T00:12:18;8.37;;;5.60;;
80398;SDS011;69722;48.642;9.142;2023-06-22T00:14:43;7.77;;;5.47;;
80398;SDS011;69722;48.642;9.142;2023-06-22T00:17:08;11.90;;;6.27;;
80398;SDS011;69722;48.642;9.142;2023-06-22T00:19:33;8.13;;;5.27;;
80398;SDS011;69722;48.642;9.142;2023-06-22T00:22:00;8.60;;;6.15;;
80398;SDS011;69722;48.642;9.142;2023-06-22T00:24:25;8.23;;;5.87;;
80398;SDS011;69722;48.642;9.142;2023-06-22T00:26:51;7.70;;;5.60;;
80398;SDS011;69722;48.642;9.142;2023-06-22T00:29:16;9.23;;;5.95;;
80398;SDS011;69722;48.642;9.142;2023-06-22T00:31:42;8.35;;;6.10;;
80398;SDS011;69722;48.642;9.142;2023-06-22T00:34:07;8.75;;;5.88;;
80398;SDS011;69722;48.642;9.142;2023-06-22T00:36:34;7.82;;;5.38;;
80398;SDS011;69722;48.642;9.142;2023-06-22T00:38:59;8.52;;;5.70;;
80398;SDS011;69722;48.642;9.142;2023-06-22T00:41:25;8.33;;;5.63;;
80398;SDS011;69722;48.642;9.142;2023-06-22T00:43:53;8.55;;;6.07;;
80398;SDS011;69722;48.642;9.142;2023-06-22T00:46:19;11.10;;;7.18;;
80398;SDS011;69722;48.642;9.142;2023-06-22T00:48:44;7.23;;;5.70;;
80398;SDS011;69722;48.642;9.142;2023-06-22T00:51:09;7.60;;;5.73;;
80398;SDS011;69722;48.642;9.142;2023-06-22T00:53:35;8.95;;;6.70;;
80398;SDS011;69722;48.642;9.142;2023-06-22T00:56:02;8.70;;;6.13;;
80398;SDS011;69722;48.642;9.142;2023-06-22T00:58:28;7.82;;;6.03;;
80398;SDS011;69722;48.642;9.142;2023-06-22T01:00:54;7.95;;;5.60;;
80398;SDS011;69722;48.642;9.142;2023-06-22T01:03:20;10.50;;;5.70;;
80398;SDS011;69722;48.642;9.142;2023-06-22T01:05:45;7.53;;;5.53;;
80398;SDS011;69722;48.642;9.142;2023-06-22T01:11:01;7.82;;;5.38;;
80398;SDS011;69722;48.642;9.142;2023-06-22T01:16:02;7.53;;;5.72;;
80398;SDS011;69722;48.642;9.142;2023-06-22T01:18:28;8.48;;;5.65;;
80398;SDS011;69722;48.642;9.142;2023-06-22T01:20:55;7.50;;;5.07;;
80398;SDS011;69722;48.642;9.142;2023-06-22T01:26:20;9.70;;;5.55;;
80398;SDS011;69722;48.642;9.142;2023-06-22T01:28:53;9.80;;;6.05;;
80398;SDS011;69722;48.642;9.142;2023-06-22T01:31:21;8.15;;;5.65;;
80398;SDS011;69722;48.642;9.142;2023-06-22T01:33:59;9.40;;;6.20;;
80398;SDS011;69722;48.642;9.142;2023-06-22T01:36:26;8.80;;;5.90;;
80398;SDS011;69722;48.642;9.142;2023-06-22T01:38:52;7.22;;;5.18;;
80398;SDS011;69722;48.642;9.142;2023-06-22T01:41:18;7.35;;;5.30;;
80398;SDS011;69722;48.642;9.142;2023-06-22T01:43:44;8.32;;;5.85;;
80398;SDS011;69722;48.642;9.142;2023-06-22T01:46:10;7.90;;;6.28;;
80398;SDS011;69722;48.642;9.142;2023-06-22T01:48:36;8.20;;;5.47;;
80398;SDS011;69722;48.642;9.142;2023-06-22T01:51:02;7.97;;;5.37;;
80398;SDS011;69722;48.642;9.142;2023-06-22T01:53:27;8.48;;;6.13;;
80398;SDS011;69722;48.642;9.142;2023-06-22T01:55:53;9.10;;;5.67;;
80398;SDS011;69722;48.642;9.142;2023-06-22T01:58:19;9.27;;;5.83;;
80398;SDS011;69722;48.642;9.142;2023-06-22T02:00:50;7.60;;;5.20;;
80398;SDS011;69722;48.642;9.142;2023-06-22T02:03:19;7.50;;;5.63;;
80398;SDS011;69722;48.642;9.142;2023-06-22T02:05:48;8.50;;;5.90;;
80398;SDS011;69722;48.642;9.142;2023-06-22T02:08:17;8.57;;;4.90;;
80398;SDS011;69722;48.642;9.142;2023-06-22T02:10:48;8.40;;;6.05;;
80398;SDS011;69722;48.642;9.142;2023-06-22T02:13:14;9.07;;;5.38;;
80398;SDS011;69722;48.642;9.142;2023-06-22T02:15:40;7.65;;;5.55;;
80398;SDS011;69722;48.642;9.142;2023-06-22T02:18:06;8.65;;;5.50;;
80398;SDS011;69722;48.642;9.142;2023-06-22T02:20:32;7.22;;;5.47;;
80398;SDS011;69722;48.642;9.142;2023-06-22T02:22:57;6.90;;;5.28;;
80398;SDS011;69722;48.642;9.142;2023-06-22T02:25:22;7.70;;;5.43;;
80398;SDS011;69722;48.642;9.142;2023-06-22T02:27:48;7.23;;;5.10;;
80398;SDS011;69722;48.642;9.142;2023-06-22T02:30:13;8.33;;;5.43;;
80398;SDS011;69722;48.642;9.142;2023-06-22T02:32:40;8.25;;;5.20;;
80398;SDS011;69722;48.642;9.142;2023-06-22T02:35:07;7.60;;;5.30;;
80398;SDS011;69722;48.642;9.142;2023-06-22T02:37:33;6.47;;;4.80;;
80398;SDS011;69722;48.642;9.142;2023-06-22T02:40:00;7.97;;;5.10;;
80398;SDS011;69722;48.642;9.142;2023-06-22T02:42:26;7.18;;;5.00;;
80398;SDS011;69722;48.642;9.142;2023-06-22T02:44:51;8.87;;;5.80;;
80398;SDS011;69722;48.642;9.142;2023-06-22T02:47:16;7.47;;;5.20;;
80398;SDS011;69722;48.642;9.142;2023-06-22T02:49:42;7.60;;;5.20;;
80398;SDS011;69722;48.642;9.142;2023-06-22T02:52:09;7.35;;;5.07;;
80398;SDS011;69722;48.642;9.142;2023-06-22T02:54:35;8.43;;;5.50;;
80398;SDS011;69722;48.642;9.142;2023-06-22T02:57:00;5.90;;;4.57;;
80398;SDS011;69722;48.642;9.142;2023-06-22T02:59:27;6.97;;;5.15;;
80398;SDS011;69722;48.642;9.142;2023-06-22T03:01:53;8.57;;;5.55;;
80398;SDS011;69722;48.642;9.142;2023-06-22T03:04:18;9.93;;;5.70;;
80398;SDS011;69722;48.642;9.142;2023-06-22T03:06:43;7.43;;;5.43;;
80398;SDS011;69722;48.642;9.142;2023-06-22T03:09:09;7.90;;;4.90;;
80398;SDS011;69722;48.642;9.142;2023-06-22T03:11:34;7.33;;;4.77;;
80398;SDS011;69722;48.642;9.142;2023-06-22T03:14:00;6.85;;;5.05;;
80398;SDS011;69722;48.642;9.142;2023-06-22T03:16:26;6.75;;;5.20;;
80398;SDS011;69722;48.642;9.142;2023-06-22T03:18:51;7.47;;;5.00;;
80398;SDS011;69722;48.642;9.142;2023-06-22T03:23:43;8.25;;;5.05;;
80398;SDS011;69722;48.642;9.142;2023-06-22T03:26:09;7.53;;;5.17;;
80398;SDS011;69722;48.642;9.142;2023-06-22T03:28:35;9.65;;;5.53;;
80398;SDS011;69722;48.642;9.142;2023-06-22T03:31:00;8.23;;;5.27;;
80398;SDS011;69722;48.642;9.142;2023-06-22T03:33:25;7.20;;;5.03;;
80398;SDS011;69722;48.642;9.142;2023-06-22T03:35:51;7.80;;;5.68;;
80398;SDS011;69722;48.642;9.142;2023-06-22T03:38:16;7.03;;;5.07;;
80398;SDS011;69722;48.642;9.142;2023-06-22T03:40:42;6.63;;;5.03;;
80398;SDS011;69722;48.642;9.142;2023-06-22T03:43:07;7.88;;;4.82;;
80398;SDS011;69722;48.642;9.142;2023-06-22T03:45:32;6.07;;;4.60;;
80398;SDS011;69722;48.642;9.142;2023-06-22T03:47:58;7.37;;;5.03;;
80398;SDS011;69722;48.642;9.142;2023-06-22T03:50:23;7.80;;;4.60;;
80398;SDS011;69722;48.642;9.142;2023-06-22T03:52:48;6.57;;;4.67;;
80398;SDS011;69722;48.642;9.142;2023-06-22T03:55:14;6.47;;;4.93;;
80398;SDS011;69722;48.642;9.142;2023-06-22T03:57:39;6.13;;;4.73;;
80398;SDS011;69722;48.642;9.142;2023-06-22T04:00:04;7.47;;;5.00;;
80398;SDS011;69722;48.642;9.142;2023-06-22T04:02:31;8.30;;;4.68;;
80398;SDS011;69722;48.642;9.142;2023-06-22T04:04:56;6.55;;;5.05;;
80398;SDS011;69722;48.642;9.142;2023-06-22T04:07:21;7.27;;;5.30;;
80398;SDS011;69722;48.642;9.142;2023-06-22T04:09:47;7.57;;;5.40;;
80398;SDS011;69722;48.642;9.142;2023-06-22T04:12:12;7.13;;;5.25;;
80398;SDS011;69722;48.642;9.142;2023-06-22T04:14:38;7.23;;;5.00;;
80398;SDS011;69722;48.642;9.142;2023-06-22T04:17:03;7.60;;;5.30;;
80398;SDS011;69722;48.642;9.142;2023-06-22T04:19:29;6.88;;;4.70;;
80398;SDS011;69722;48.642;9.142;2023-06-22T04:21:54;6.57;;;4.60;;
80398;SDS011;69722;48.642;9.142;2023-06-22T04:24:20;6.37;;;5.13;;
80398;SDS011;69722;48.642;9.142;2023-06-22T04:26:45;7.57;;;5.40;;
80398;SDS011;69722;48.642;9.142;2023-06-22T04:29:12;7.50;;;5.47;;
80398;SDS011;69722;48.642;9.142;2023-06-22T04:31:37;7.35;;;5.78;;
80398;SDS011;69722;48.642;9.142;2023-06-22T04:34:06;6.15;;;5.00;;
80398;SDS011;69722;48.642;9.142;2023-06-22T04:36:33;7.13;;;4.75;;
80398;SDS011;69722;48.642;9.142;2023-06-22T04:39:03;9.50;;;5.85;;
80398;SDS011;69722;48.642;9.142;2023-06-22T04:41:29;10.52;;;7.00;;
80398;SDS011;69722;48.642;9.142;2023-06-22T04:43:55;14.03;;;7.80;;
80398;SDS011;69722;48.642;9.142;2023-06-22T04:46:24;17.13;;;7.93;;
80398;SDS011;69722;48.642;9.142;2023-06-22T04:48:50;11.52;;;7.40;;
80398;SDS011;69722;48.642;9.142;2023-06-22T04:51:15;12.70;;;7.93;;
80398;SDS011;69722;48.642;9.142;2023-06-22T04:53:40;14.80;;;7.67;;
80398;SDS011;69722;48.642;9.142;2023-06-22T04:56:06;13.67;;;7.97;;
80398;SDS011;69722;48.642;9.142;2023-06-22T04:58:31;11.40;;;7.17;;
80398;SDS011;69722;48.642;9.142;2023-06-22T05:00:57;12.25;;;7.75;;
80398;SDS011;69722;48.642;9.142;2023-06-22T05:03:24;13.55;;;7.05;;
80398;SDS011;69722;48.642;9.142;2023-06-22T05:05:51;14.73;;;7.72;;
80398;SDS011;69722;48.642;9.142;2023-06-22T05:08:17;11.02;;;6.70;;
80398;SDS011;69722;48.642;9.142;2023-06-22T05:10:42;17.60;;;7.35;;
80398;SDS011;69722;48.642;9.142;2023-06-22T05:13:08;12.30;;;7.13;;
80398;SDS011;69722;48.642;9.142;2023-06-22T05:15:33;13.20;;;6.80;;
80398;SDS011;69722;48.642;9.142;2023-06-22T05:18:02;9.43;;;6.60;;
80398;SDS011;69722;48.642;9.142;2023-06-22T05:20:30;13.23;;;8.07;;
80398;SDS011;69722;48.642;9.142;2023-06-22T05:22:56;14.18;;;8.35;;
80398;SDS011;69722;48.642;9.142;2023-06-22T05:25:21;12.18;;;7.00;;
80398;SDS011;69722;48.642;9.142;2023-06-22T05:27:46;13.13;;;7.40;;
80398;SDS011;69722;48.642;9.142;2023-06-22T05:30:12;18.92;;;7.72;;
80398;SDS011;69722;48.642;9.142;2023-06-22T05:32:37;12.45;;;6.63;;
80398;SDS011;69722;48.642;9.142;2023-06-22T05:35:03;11.48;;;6.57;;
80398;SDS011;69722;48.642;9.142;2023-06-22T05:37:29;11.75;;;6.45;;
80398;SDS011;69722;48.642;9.142;2023-06-22T05:39:54;12.95;;;6.68;;
80398;SDS011;69722;48.642;9.142;2023-06-22T05:42:20;13.57;;;7.30;;
80398;SDS011;69722;48.642;9.142;2023-06-22T05:44:46;14.05;;;6.70;;
80398;SDS011;69722;48.642;9.142;2023-06-22T05:47:12;12.00;;;6.63;;
80398;SDS011;69722;48.642;9.142;2023-06-22T05:49:37;10.05;;;5.80;;
80398;SDS011;69722;48.642;9.142;2023-06-22T05:52:03;10.30;;;5.83;;
80398;SDS011;69722;48.642;9.142;2023-06-22T05:54:28;10.35;;;5.78;;
80398;SDS011;69722;48.642;9.142;2023-06-22T05:56:53;9.90;;;6.00;;
80398;SDS011;69722;48.642;9.142;2023-06-22T05:59:19;10.33;;;6.13;;
80398;SDS011;69722;48.642;9.142;2023-06-22T06:01:44;10.73;;;5.93;;
80398;SDS011;69722;48.642;9.142;2023-06-22T06:04:10;9.80;;;6.10;;
80398;SDS011;69722;48.642;9.142;2023-06-22T06:06:35;12.40;;;5.80;;
80398;SDS011;69722;48.642;9.142;2023-06-22T06:09:04;11.35;;;6.03;;
80398;SDS011;69722;48.642;9.142;2023-06-22T06:11:30;11.65;;;6.00;;
80398;SDS011;69722;48.642;9.142;2023-06-22T06:13:55;10.37;;;5.67;;
80398;SDS011;69722;48.642;9.142;2023-06-22T06:16:21;10.93;;;5.17;;
80398;SDS011;69722;48.642;9.142;2023-06-22T06:18:47;12.15;;;5.63;;
80398;SDS011;69722;48.642;9.142;2023-06-22T06:21:14;12.05;;;5.30;;
80398;SDS011;69722;48.642;9.142;2023-06-22T06:23:39;9.30;;;4.63;;
80398;SDS011;69722;48.642;9.142;2023-06-22T06:26:05;8.70;;;5.10;;
80398;SDS011;69722;48.642;9.142;2023-06-22T06:28:31;9.55;;;5.57;;
80398;SDS011;69722;48.642;9.142;2023-06-22T06:30:57;9.60;;;5.00;;
80398;SDS011;69722;48.642;9.142;2023-06-22T06:33:22;9.57;;;4.80;;
80398;SDS011;69722;48.642;9.142;2023-06-22T06:35:48;10.13;;;5.03;;
80398;SDS011;69722;48.642;9.142;2023-06-22T06:38:14;12.00;;;4.93;;
80398;SDS011;69722;48.642;9.142;2023-06-22T06:40:39;9.70;;;5.17;;
80398;SDS011;69722;48.642;9.142;2023-06-22T06:43:04;10.13;;;4.83;;
80398;SDS011;69722;48.642;9.142;2023-06-22T06:45:30;9.00;;;5.30;;
80398;SDS011;69722;48.642;9.142;2023-06-22T06:47:57;8.88;;;4.95;;
80398;SDS011;69722;48.642;9.142;2023-06-22T06:50:23;9.57;;;4.50;;
80398;SDS011;69722;48.642;9.142;2023-06-22T06:52:48;12.45;;;5.18;;
80398;SDS011;69722;48.642;9.142;2023-06-22T06:55:15;9.38;;;5.03;;
80398;SDS011;69722;48.642;9.142;2023-06-22T06:57:41;11.30;;;6.10;;
80398;SDS011;69722;48.642;9.142;2023-06-22T07:00:10;8.73;;;4.85;;
80398;SDS011;69722;48.642;9.142;2023-06-22T07:02:39;10.55;;;5.38;;
80398;SDS011;69722;48.642;9.142;2023-06-22T07:05:05;7.10;;;4.50;;
80398;SDS011;69722;48.642;9.142;2023-06-22T07:07:30;9.05;;;5.20;;
80398;SDS011;69722;48.642;9.142;2023-06-22T07:09:56;8.93;;;4.45;;
80398;SDS011;69722;48.642;9.142;2023-06-22T07:12:21;8.07;;;5.20;;
80398;SDS011;69722;48.642;9.142;2023-06-22T07:14:47;7.80;;;4.63;;
80398;SDS011;69722;48.642;9.142;2023-06-22T07:17:12;8.90;;;5.10;;
80398;SDS011;69722;48.642;9.142;2023-06-22T07:19:37;9.53;;;4.83;;
80398;SDS011;69722;48.642;9.142;2023-06-22T07:22:03;7.47;;;4.40;;
80398;SDS011;69722;48.642;9.142;2023-06-22T07:24:29;11.45;;;4.68;;
80398;SDS011;69722;48.642;9.142;2023-06-22T07:26:54;10.13;;;5.13;;
80398;SDS011;69722;48.642;9.142;2023-06-22T07:29:20;8.70;;;5.10;;
80398;SDS011;69722;48.642;9.142;2023-06-22T07:31:46;11.00;;;4.78;;
80398;SDS011;69722;48.642;9.142;2023-06-22T07:34:12;7.53;;;5.13;;
80398;SDS011;69722;48.642;9.142;2023-06-22T07:36:37;8.75;;;4.82;;
80398;SDS011;69722;48.642;9.142;2023-06-22T07:39:02;7.30;;;4.03;;
80398;SDS011;69722;48.642;9.142;2023-06-22T07:41:29;9.32;;;4.65;;
80398;SDS011;69722;48.642;9.142;2023-06-22T07:43:54;8.75;;;4.60;;
80398;SDS011;69722;48.642;9.142;2023-06-22T07:46:20;10.57;;;4.82;;
80398;SDS011;69722;48.642;9.142;2023-06-22T07:48:45;9.98;;;4.60;;
80398;SDS011;69722;48.642;9.142;2023-06-22T07:51:10;9.03;;;5.50;;
80398;SDS011;69722;48.642;9.142;2023-06-22T07:56:03;9.03;;;4.40;;
80398;SDS011;69722;48.642;9.142;2023-06-22T07:58:32;12.75;;;5.25;;
80398;SDS011;69722;48.642;9.142;2023-06-22T08:00:57;9.68;;;4.60;;
80398;SDS011;69722;48.642;9.142;2023-06-22T08:03:24;9.68;;;4.15;;
80398;SDS011;69722;48.642;9.142;2023-06-22T08:05:49;7.40;;;4.13;;
80398;SDS011;69722;48.642;9.142;2023-06-22T08:08:14;11.68;;;5.15;;
80398;SDS011;69722;48.642;9.142;2023-06-22T08:10:40;10.27;;;4.67;;
80398;SDS011;69722;48.642;9.142;2023-06-22T08:15:32;8.27;;;4.50;;
80398;SDS011;69722;48.642;9.142;2023-06-22T08:17:57;8.80;;;5.40;;
80398;SDS011;69722;48.642;9.142;2023-06-22T08:20:24;11.52;;;4.35;;
80398;SDS011;69722;48.642;9.142;2023-06-22T08:22:49;8.20;;;4.68;;
80398;SDS011;69722;48.642;9.142;2023-06-22T08:25:14;9.10;;;4.63;;
80398;SDS011;69722;48.642;9.142;2023-06-22T08:27:40;10.57;;;4.73;;
80398;SDS011;69722;48.642;9.142;2023-06-22T08:30:06;6.83;;;4.07;;
80398;SDS011;69722;48.642;9.142;2023-06-22T08:32:32;9.43;;;4.75;;
80398;SDS011;69722;48.642;9.142;2023-06-22T08:34:57;10.00;;;5.38;;
80398;SDS011;69722;48.642;9.142;2023-06-22T08:37:23;8.90;;;5.23;;
80398;SDS011;69722;48.642;9.142;2023-06-22T08:39:55;14.77;;;4.90;;
80398;SDS011;69722;48.642;9.142;2023-06-22T08:42:21;13.40;;;4.82;;
80398;SDS011;69722;48.642;9.142;2023-06-22T08:44:48;9.05;;;4.80;;
80398;SDS011;69722;48.642;9.142;2023-06-22T08:47:13;14.87;;;5.27;;
80398;SDS011;69722;48.642;9.142;2023-06-22T08:49:38;8.87;;;4.80;;
80398;SDS011;69722;48.642;9.142;2023-06-22T08:52:04;8.40;;;5.37;;
80398;SDS011;69722;48.642;9.142;2023-06-22T08:54:29;10.50;;;4.55;;
80398;SDS011;69722;48.642;9.142;2023-06-22T08:56:58;9.38;;;4.40;;
80398;SDS011;69722;48.642;9.142;2023-06-22T08:59:23;9.67;;;4.63;;
80398;SDS011;69722;48.642;9.142;2023-06-22T09:01:48;9.67;;;5.00;;
80398;SDS011;69722;48.642;9.142;2023-06-22T09:04:14;11.03;;;4.67;;
80398;SDS011;69722;48.642;9.142;2023-06-22T09:06:40;7.40;;;4.40;;
80398;SDS011;69722;48.642;9.142;2023-06-22T09:09:10;9.52;;;4.60;;
80398;SDS011;69722;48.642;9.142;2023-06-22T09:11:35;9.82;;;5.30;;
80398;SDS011;69722;48.642;9.142;2023-06-22T09:14:01;9.33;;;4.93;;
80398;SDS011;69722;48.642;9.142;2023-06-22T09:16:26;6.37;;;4.10;;
80398;SDS011;69722;48.642;9.142;2023-06-22T09:18:51;9.23;;;4.43;;
80398;SDS011;69722;48.642;9.142;2023-06-22T09:21:17;8.97;;;4.60;;
80398;SDS011;69722;48.642;9.142;2023-06-22T09:23:42;7.65;;;4.50;;
80398;SDS011;69722;48.642;9.142;2023-06-22T09:26:08;9.43;;;4.30;;
80398;SDS011;69722;48.642;9.142;2023-06-22T09:28:33;10.82;;;4.55;;
80398;SDS011;69722;48.642;9.142;2023-06-22T09:30:59;10.25;;;3.90;;
80398;SDS011;69722;48.642;9.142;2023-06-22T09:33:25;9.02;;;4.72;;
80398;SDS011;69722;48.642;9.142;2023-06-22T09:35:51;8.10;;;4.20;;
80398;SDS011;69722;48.642;9.142;2023-06-22T09:38:16;12.67;;;4.77;;
80398;SDS011;69722;48.642;9.142;2023-06-22T09:40:42;8.95;;;4.35;;
80398;SDS011;69722;48.642;9.142;2023-06-22T09:43:07;12.73;;;4.23;;
80398;SDS011;69722;48.642;9.142;2023-06-22T09:45:32;10.07;;;4.68;;
80398;SDS011;69722;48.642;9.142;2023-06-22T09:47:58;8.60;;;4.60;;
80398;SDS011;69722;48.642;9.142;2023-06-22T09:50:23;9.10;;;4.60;;
80398;SDS011;69722;48.642;9.142;2023-06-22T09:52:48;8.98;;;4.90;;
80398;SDS011;69722;48.642;9.142;2023-06-22T09:55:19;8.32;;;5.00;;
80398;SDS011;69722;48.642;9.142;2023-06-22T09:57:44;8.03;;;4.13;;
80398;SDS011;69722;48.642;9.142;2023-06-22T10:00:10;12.17;;;5.13;;
80398;SDS011;69722;48.642;9.142;2023-06-22T10:02:38;7.38;;;4.80;;
80398;SDS011;69722;48.642;9.142;2023-06-22T10:05:04;8.95;;;4.35;;
80398;SDS011;69722;48.642;9.142;2023-06-22T10:07:30;10.45;;;5.20;;
80398;SDS011;69722;48.642;9.142;2023-06-22T10:09:55;10.85;;;4.72;;
80398;SDS011;69722;48.642;9.142;2023-06-22T10:12:20;7.60;;;4.60;;
80398;SDS011;69722;48.642;9.142;2023-06-22T10:14:46;6.77;;;4.00;;
80398;SDS011;69722;48.642;9.142;2023-06-22T10:17:11;11.20;;;5.30;;
80398;SDS011;69722;48.642;9.142;2023-06-22T10:19:36;9.98;;;4.10;;
80398;SDS011;69722;48.642;9.142;2023-06-22T10:22:04;8.95;;;4.93;;
80398;SDS011;69722;48.642;9.142;2023-06-22T10:24:30;8.73;;;4.50;;
80398;SDS011;69722;48.642;9.142;2023-06-22T10:26:55;8.63;;;5.00;;
80398;SDS011;69722;48.642;9.142;2023-06-22T10:29:20;9.17;;;5.33;;
80398;SDS011;69722;48.642;9.142;2023-06-22T10:31:46;12.83;;;5.10;;
80398;SDS011;69722;48.642;9.142;2023-06-22T10:34:11;9.60;;;5.50;;
80398;SDS011;69722;48.642;9.142;2023-06-22T10:36:36;7.50;;;4.60;;
80398;SDS011;69722;48.642;9.142;2023-06-22T10:39:02;10.23;;;5.13;;
80398;SDS011;69722;48.642;9.142;2023-06-22T10:41:27;13.10;;;4.68;;
80398;SDS011;69722;48.642;9.142;2023-06-22T10:43:55;12.20;;;5.55;;
80398;SDS011;69722;48.642;9.142;2023-06-22T10:46:20;10.40;;;4.95;;
80398;SDS011;69722;48.642;9.142;2023-06-22T10:48:46;11.80;;;4.80;;
80398;SDS011;69722;48.642;9.142;2023-06-22T10:51:11;12.97;;;4.43;;
80398;SDS011;69722;48.642;9.142;2023-06-22T10:53:36;9.27;;;4.70;;
80398;SDS011;69722;48.642;9.142;2023-06-22T10:56:01;8.20;;;4.70;;
80398;SDS011;69722;48.642;9.142;2023-06-22T10:58:27;15.80;;;5.07;;
80398;SDS011;69722;48.642;9.142;2023-06-22T11:00:52;10.98;;;5.07;;
80398;SDS011;69722;48.642;9.142;2023-06-22T11:03:17;9.40;;;4.70;;
80398;SDS011;69722;48.642;9.142;2023-06-22T11:05:43;10.57;;;5.10;;
80398;SDS011;69722;48.642;9.142;2023-06-22T11:08:08;11.30;;;5.13;;
80398;SDS011;69722;48.642;9.142;2023-06-22T11:10:33;10.37;;;5.37;;
80398;SDS011;69722;48.642;9.142;2023-06-22T11:12:59;10.05;;;5.10;;
80398;SDS011;69722;48.642;9.142;2023-06-22T11:15:24;9.13;;;4.57;;
80398;SDS011;69722;48.642;9.142;2023-06-22T11:17:50;8.63;;;4.72;;
80398;SDS011;69722;48.642;9.142;2023-06-22T11:20:15;7.80;;;4.63;;
80398;SDS011;69722;48.642;9.142;2023-06-22T11:22:41;9.13;;;4.72;;
80398;SDS011;69722;48.642;9.142;2023-06-22T11:25:07;11.45;;;4.88;;
80398;SDS011;69722;48.642;9.142;2023-06-22T11:27:33;9.60;;;4.65;;
80398;SDS011;69722;48.642;9.142;2023-06-22T11:29:58;11.52;;;5.13;;
80398;SDS011;69722;48.642;9.142;2023-06-22T11:32:23;11.53;;;5.23;;
80398;SDS011;69722;48.642;9.142;2023-06-22T11:34:49;8.83;;;4.27;;
80398;SDS011;69722;48.642;9.142;2023-06-22T11:37:14;15.20;;;4.70;;
80398;SDS011;69722;48.642;9.142;2023-06-22T11:39:40;9.45;;;4.82;;
80398;SDS011;69722;48.642;9.142;2023-06-22T11:42:06;13.27;;;4.72;;
80398;SDS011;69722;48.642;9.142;2023-06-22T11:44:31;15.40;;;5.15;;
80398;SDS011;69722;48.642;9.142;2023-06-22T11:46:56;11.37;;;4.80;;
80398;SDS011;69722;48.642;9.142;2023-06-22T11:49:22;12.63;;;5.30;;
80398;SDS011;69722;48.642;9.142;2023-06-22T11:51:47;9.23;;;4.70;;
80398;SDS011;69722;48.642;9.142;2023-06-22T11:54:13;9.00;;;4.13;;
80398;SDS011;69722;48.642;9.142;2023-06-22T11:56:38;12.27;;;4.75;;
80398;SDS011;69722;48.642;9.142;2023-06-22T11:59:03;10.37;;;4.40;;
80398;SDS011;69722;48.642;9.142;2023-06-22T12:01:29;8.60;;;4.40;;
80398;SDS011;69722;48.642;9.142;2023-06-22T12:03:54;11.77;;;4.80;;
80398;SDS011;69722;48.642;9.142;2023-06-22T12:06:19;9.97;;;4.77;;
80398;SDS011;69722;48.642;9.142;2023-06-22T12:08:45;9.57;;;4.83;;
80398;SDS011;69722;48.642;9.142;2023-06-22T12:11:10;7.80;;;4.80;;
80398;SDS011;69722;48.642;9.142;2023-06-22T12:13:35;10.37;;;4.37;;
80398;SDS011;69722;48.642;9.142;2023-06-22T12:16:00;8.93;;;4.53;;
80398;SDS011;69722;48.642;9.142;2023-06-22T12:18:26;9.40;;;4.60;;
80398;SDS011;69722;48.642;9.142;2023-06-22T12:20:51;12.30;;;4.40;;
80398;SDS011;69722;48.642;9.142;2023-06-22T12:23:16;10.17;;;4.43;;
80398;SDS011;69722;48.642;9.142;2023-06-22T12:25:42;10.00;;;4.80;;
80398;SDS011;69722;48.642;9.142;2023-06-22T12:28:07;9.93;;;4.80;;
80398;SDS011;69722;48.642;9.142;2023-06-22T12:30:33;8.67;;;4.13;;
80398;SDS011;69722;48.642;9.142;2023-06-22T12:32:58;7.88;;;4.80;;
80398;SDS011;69722;48.642;9.142;2023-06-22T12:35:23;9.00;;;4.27;;
80398;SDS011;69722;48.642;9.142;2023-06-22T12:37:49;7.22;;;4.43;;
80398;SDS011;69722;48.642;9.142;2023-06-22T12:40:14;9.07;;;4.13;;
80398;SDS011;69722;48.642;9.142;2023-06-22T12:42:40;9.77;;;4.15;;
80398;SDS011;69722;48.642;9.142;2023-06-22T12:45:06;9.15;;;4.03;;
80398;SDS011;69722;48.642;9.142;2023-06-22T12:47:32;7.10;;;3.88;;
80398;SDS011;69722;48.642;9.142;2023-06-22T12:49:58;8.25;;;4.80;;
80398;SDS011;69722;48.642;9.142;2023-06-22T12:52:23;8.77;;;4.57;;
80398;SDS011;69722;48.642;9.142;2023-06-22T12:54:49;8.43;;;4.50;;
80398;SDS011;69722;48.642;9.142;2023-06-22T12:57:14;10.85;;;4.97;;
80398;SDS011;69722;48.642;9.142;2023-06-22T12:59:39;8.67;;;4.13;;
80398;SDS011;69722;48.642;9.142;2023-06-22T13:02:05;6.37;;;4.00;;
80398;SDS011;69722;48.642;9.142;2023-06-22T13:04:30;9.88;;;3.67;;
80398;SDS011;69722;48.642;9.142;2023-06-22T13:06:55;8.60;;;5.53;;
80398;SDS011;69722;48.642;9.142;2023-06-22T13:09:21;5.57;;;4.00;;
80398;SDS011;69722;48.642;9.142;2023-06-22T13:11:46;9.10;;;3.87;;
80398;SDS011;69722;48.642;9.142;2023-06-22T13:14:12;18.25;;;11.23;;
80398;SDS011;69722;48.642;9.142;2023-06-22T13:16:37;31.93;;;18.43;;
80398;SDS011;69722;48.642;9.142;2023-06-22T13:19:02;25.83;;;13.70;;
80398;SDS011;69722;48.642;9.142;2023-06-22T13:21:28;23.85;;;14.50;;
80398;SDS011;69722;48.642;9.142;2023-06-22T13:23:53;18.50;;;12.68;;
80398;SDS011;69722;48.642;9.142;2023-06-22T13:26:19;25.73;;;13.20;;
80398;SDS011;69722;48.642;9.142;2023-06-22T13:28:45;22.67;;;13.32;;
80398;SDS011;69722;48.642;9.142;2023-06-22T13:31:11;20.90;;;12.37;;
80398;SDS011;69722;48.642;9.142;2023-06-22T13:33:37;19.73;;;12.03;;
80398;SDS011;69722;48.642;9.142;2023-06-22T13:36:02;18.38;;;11.68;;
80398;SDS011;69722;48.642;9.142;2023-06-22T13:38:28;19.25;;;12.80;;
80398;SDS011;69722;48.642;9.142;2023-06-22T13:40:55;19.35;;;11.65;;
80398;SDS011;69722;48.642;9.142;2023-06-22T13:45:48;16.23;;;11.02;;
80398;SDS011;69722;48.642;9.142;2023-06-22T13:48:14;19.83;;;12.32;;
80398;SDS011;69722;48.642;9.142;2023-06-22T13:50:39;17.10;;;10.83;;
80398;SDS011;69722;48.642;9.142;2023-06-22T13:53:08;19.57;;;11.37;;
80398;SDS011;69722;48.642;9.142;2023-06-22T13:55:33;20.13;;;10.43;;
80398;SDS011;69722;48.642;9.142;2023-06-22T13:57:58;19.10;;;11.20;;
80398;SDS011;69722;48.642;9.142;2023-06-22T14:00:23;19.90;;;11.43;;
80398;SDS011;69722;48.642;9.142;2023-06-22T14:02:49;18.00;;;10.60;;
80398;SDS011;69722;48.642;9.142;2023-06-22T14:05:14;16.57;;;10.27;;
80398;SDS011;69722;48.642;9.142;2023-06-22T14:07:39;17.57;;;10.73;;
80398;SDS011;69722;48.642;9.142;2023-06-22T14:10:05;16.37;;;9.93;;
80398;SDS011;69722;48.642;9.142;2023-06-22T14:12:30;17.05;;;10.13;;
80398;SDS011;69722;48.642;9.142;2023-06-22T14:14:56;17.33;;;10.40;;
80398;SDS011;69722;48.642;9.142;2023-06-22T14:17:22;18.00;;;11.82;;
80398;SDS011;69722;48.642;9.142;2023-06-22T14:19:50;19.55;;;10.85;;
80398;SDS011;69722;48.642;9.142;2023-06-22T14:22:19;18.33;;;11.15;;
80398;SDS011;69722;48.642;9.142;2023-06-22T14:24:45;19.67;;;11.95;;
80398;SDS011;69722;48.642;9.142;2023-06-22T14:27:14;19.00;;;10.48;;
80398;SDS011;69722;48.642;9.142;2023-06-22T14:29:40;14.93;;;9.63;;
80398;SDS011;69722;48.642;9.142;2023-06-22T14:32:05;17.40;;;10.02;;
80398;SDS011;69722;48.642;9.142;2023-06-22T14:34:32;16.38;;;9.52;;
80398;SDS011;69722;48.642;9.142;2023-06-22T14:36:57;16.15;;;10.20;;
80398;SDS011;69722;48.642;9.142;2023-06-22T14:39:23;18.57;;;11.07;;
80398;SDS011;69722;48.642;9.142;2023-06-22T14:41:48;16.93;;;9.73;;
80398;SDS011;69722;48.642;9.142;2023-06-22T14:44:13;18.10;;;10.13;;
80398;SDS011;69722;48.642;9.142;2023-06-22T14:46:40;15.70;;;9.65;;
80398;SDS011;69722;48.642;9.142;2023-06-22T14:49:05;19.73;;;10.33;;